Vectis Progress — 2FVR9 — position and weather

sailwx.info

Track history (hours):
 
Tides and Currents Weather Stations Pressure Air Temp Water Temp Dewpoint Dewpoint Depression Visibility Wind Speed Wind Dir Waves Ship Positions

Vectis Progress

Last reported at 2017-Nov-22 19:09 UTC. Time now 2017-Nov-24 07:25 UTC.
Position N 09°12' W 016°11'.

Length 124 m; draft 7.4 m.

Type: Cargo ship. MMSI: 235094626.

Date/timePositionNaut miles runAvg speedWind from/ knotsBaromVisibWave heightAir tempDewpointWater temp
2017-Nov-22 19:09N 09°12' W 016°11'  
2017-Nov-18 14:29N 27°35' W 015°14'4 4.6
2017-Nov-18 13:41N 27°39' W 015°13'1 7.3
2017-Nov-18 13:30N 27°40' W 015°12'611.4
2017-Nov-18 13:00N 27°45' W 015°10'611.5
2017-Nov-18 12:30N 27°51' W 015°07'611.6
2017-Nov-18 12:00N 27°56' W 015°05'611.7
2017-Nov-18 11:30N 28°02' W 015°03'611.8
2017-Nov-18 11:00N 28°07' W 015°01'612.0
2017-Nov-18 10:30N 28°13' W 014°58'612.1
2017-Nov-18 10:00N 28°19' W 014°56'612.0
2017-Nov-18 09:30N 28°24' W 014°54'612.0
2017-Nov-18 09:00N 28°30' W 014°52'612.2
2017-Nov-18 08:30N 28°36' W 014°50'612.1
2017-Nov-18 08:00N 28°42' W 014°48'612.1
2017-Nov-18 07:30N 28°48' W 014°46'712.0
2017-Nov-18 06:56N 28°54' W 014°44'511.8
2017-Nov-18 06:30N 28°59' W 014°43'612.1
2017-Nov-18 06:00N 29°05' W 014°41'1012.2
2017-Nov-18 05:09N 29°15' W 014°38'312.2
2017-Nov-18 04:55N 29°18' W 014°37'511.8
2017-Nov-18 04:30N 29°23' W 014°36'711.9
2017-Nov-18 03:54N 29°29' W 014°33'511.9
2017-Nov-18 03:30N 29°34' W 014°32'712.0
2017-Nov-18 02:57N 29°40' W 014°30'611.9
2017-Nov-18 02:25N 29°47' W 014°28'511.9
2017-Nov-18 02:00N 29°51' W 014°27'911.9
2017-Nov-18 01:14N 30°00' W 014°24'2611.8
2017-Nov-17 23:04N 30°25' W 014°16'  
2017-Nov-14 02:19N 47°48' W 006°40'28111.2
2017-Nov-13 01:08N 50°23' W 000°42'212.0
2017-Nov-13 00:57N 50°24' W 000°39'612.2
2017-Nov-13 00:28N 50°26' W 000°30'612.4
2017-Nov-13 00:00N 50°27' W 000°21'612.6
2017-Nov-12 23:30N 50°29' W 000°12'612.5
2017-Nov-12 23:00N 50°31' W 000°02'612.6
2017-Nov-12 22:30N 50°33' E 000°07'612.6
2017-Nov-12 22:00N 50°35' E 000°17'712.7
2017-Nov-12 21:29N 50°36' E 000°27'612.4
2017-Nov-12 21:00N 50°38' E 000°36'612.6
2017-Nov-12 20:30N 50°42' E 000°43'612.3
2017-Nov-12 20:00N 50°46' E 000°51'611.9
2017-Nov-12 19:30N 50°49' E 000°59'  
Track history (hours):
 
Tides and Currents Weather Stations Pressure Air Temp Water Temp Dewpoint Dewpoint Depression Visibility Wind Speed Wind Dir Waves Ship Positions

Vectis Progress

Last reported at 2017-Nov-22 19:09 UTC. Time now 2017-Nov-24 07:25 UTC.
Position N 09°12' W 016°11'.

Length 124 m; draft 7.4 m.

Type: Cargo ship. MMSI: 235094626.

Date/timePositionNaut miles runAvg speedWind from/ knotsBaromVisibWave heightAir tempDewpointWater temp
2017-Nov-22 19:09N 09°12' W 016°11'  
2017-Nov-18 14:29N 27°35' W 015°14'4 4.6
2017-Nov-18 13:41N 27°39' W 015°13'1 7.3
2017-Nov-18 13:30N 27°40' W 015°12'611.4
2017-Nov-18 13:00N 27°45' W 015°10'611.5
2017-Nov-18 12:30N 27°51' W 015°07'611.6
2017-Nov-18 12:00N 27°56' W 015°05'611.7
2017-Nov-18 11:30N 28°02' W 015°03'611.8
2017-Nov-18 11:00N 28°07' W 015°01'612.0
2017-Nov-18 10:30N 28°13' W 014°58'612.1
2017-Nov-18 10:00N 28°19' W 014°56'612.0
2017-Nov-18 09:30N 28°24' W 014°54'612.0
2017-Nov-18 09:00N 28°30' W 014°52'612.2
2017-Nov-18 08:30N 28°36' W 014°50'612.1
2017-Nov-18 08:00N 28°42' W 014°48'612.1
2017-Nov-18 07:30N 28°48' W 014°46'712.0
2017-Nov-18 06:56N 28°54' W 014°44'511.8
2017-Nov-18 06:30N 28°59' W 014°43'612.1
2017-Nov-18 06:00N 29°05' W 014°41'1012.2
2017-Nov-18 05:09N 29°15' W 014°38'312.2
2017-Nov-18 04:55N 29°18' W 014°37'511.8
2017-Nov-18 04:30N 29°23' W 014°36'711.9
2017-Nov-18 03:54N 29°29' W 014°33'511.9
2017-Nov-18 03:30N 29°34' W 014°32'712.0
2017-Nov-18 02:57N 29°40' W 014°30'611.9
2017-Nov-18 02:25N 29°47' W 014°28'511.9
2017-Nov-18 02:00N 29°51' W 014°27'911.9
2017-Nov-18 01:14N 30°00' W 014°24'2611.8
2017-Nov-17 23:04N 30°25' W 014°16'  
2017-Nov-14 02:19N 47°48' W 006°40'28111.2
2017-Nov-13 01:08N 50°23' W 000°42'212.0
2017-Nov-13 00:57N 50°24' W 000°39'612.2
2017-Nov-13 00:28N 50°26' W 000°30'612.4
2017-Nov-13 00:00N 50°27' W 000°21'612.6
2017-Nov-12 23:30N 50°29' W 000°12'612.5
2017-Nov-12 23:00N 50°31' W 000°02'612.6
2017-Nov-12 22:30N 50°33' E 000°07'612.6
2017-Nov-12 22:00N 50°35' E 000°17'712.7
2017-Nov-12 21:29N 50°36' E 000°27'612.4
2017-Nov-12 21:00N 50°38' E 000°36'612.6
2017-Nov-12 20:30N 50°42' E 000°43'612.3
2017-Nov-12 20:00N 50°46' E 000°51'611.9
2017-Nov-12 19:30N 50°49' E 000°59'  

Dump ship's entire track history